createdAt,value
2018-02-04T00:00:11.020Z,-0.30
2018-02-04T00:02:39.121Z,-0.10
2018-02-04T00:05:06.777Z,0.10
2018-02-04T00:07:35.409Z,0.00
2018-02-04T00:10:03.061Z,-0.20
2018-02-04T00:12:31.266Z,-0.30
2018-02-04T00:14:59.253Z,-0.30
2018-02-04T00:17:26.872Z,-0.10
2018-02-04T00:19:54.534Z,-0.60
2018-02-04T00:22:33.885Z,-0.50
2018-02-04T00:25:01.522Z,-0.40
2018-02-04T00:27:29.173Z,0.00
2018-02-04T00:29:56.788Z,-0.30
2018-02-04T00:32:24.452Z,-0.20
2018-02-04T00:34:52.081Z,-0.10
2018-02-04T00:37:19.974Z,-0.40
2018-02-04T00:39:47.581Z,0.00
2018-02-04T00:42:15.254Z,-0.20
2018-02-04T00:44:42.869Z,-0.20
2018-02-04T00:47:10.961Z,-0.30
2018-02-04T00:49:38.789Z,-0.60
2018-02-04T00:52:06.545Z,-0.20
2018-02-04T00:54:34.200Z,-0.30
2018-02-04T00:57:02.442Z,-0.60
2018-02-04T00:59:30.092Z,-0.40
2018-02-04T01:01:57.744Z,-0.40
2018-02-04T01:04:25.449Z,-0.60
2018-02-04T01:06:53.061Z,-0.50
2018-02-04T01:09:20.713Z,-0.40
2018-02-04T01:11:48.653Z,-0.50
2018-02-04T01:14:16.304Z,-0.30
2018-02-04T01:16:43.929Z,-0.20
2018-02-04T01:19:11.594Z,-0.40
2018-02-04T01:21:39.251Z,-0.50
2018-02-04T01:24:07.546Z,-0.40
2018-02-04T01:26:35.197Z,-0.40
2018-02-04T01:29:02.812Z,-0.50
2018-02-04T01:31:30.472Z,-0.30
2018-02-04T01:33:59.135Z,-0.40
2018-02-04T01:36:26.793Z,-0.70
2018-02-04T01:38:55.185Z,-0.50
2018-02-04T01:41:23.033Z,-0.40
2018-02-04T01:43:51.361Z,-0.40
2018-02-04T01:46:18.993Z,-0.50
2018-02-04T01:48:46.646Z,-0.30
2018-02-04T01:51:14.272Z,-0.60
2018-02-04T01:53:41.931Z,-0.50
2018-02-04T01:56:09.592Z,-0.90
2018-02-04T01:58:37.209Z,-0.50
2018-02-04T02:01:05.594Z,-0.40
2018-02-04T02:03:33.257Z,-0.60
2018-02-04T02:06:01.053Z,-0.40
2018-02-04T02:08:28.669Z,-0.40
2018-02-04T02:10:57.085Z,-0.50
2018-02-04T02:13:24.702Z,-0.50
2018-02-04T02:15:52.610Z,-0.30
2018-02-04T02:18:20.225Z,-0.60
2018-02-04T02:20:48.640Z,-0.20
2018-02-04T02:23:16.265Z,-0.60
2018-02-04T02:25:44.672Z,-0.40
2018-02-04T02:28:12.897Z,-0.60
2018-02-04T02:30:40.556Z,-0.50
2018-02-04T02:33:09.120Z,-0.40
2018-02-04T02:35:37.326Z,-0.70
2018-02-04T02:38:04.975Z,-0.30
2018-02-04T02:40:32.725Z,-0.30
2018-02-04T02:43:00.390Z,-0.30
2018-02-04T02:45:28.055Z,-0.30
2018-02-04T02:47:55.669Z,-0.30
2018-02-04T02:50:23.329Z,-0.40
2018-02-04T02:52:50.958Z,-0.20
2018-02-04T02:55:19.945Z,-0.40
2018-02-04T02:57:48.393Z,-0.20
2018-02-04T03:00:16.267Z,-0.30
2018-02-04T03:02:43.945Z,-0.10
2018-02-04T03:05:11.564Z,-0.10
2018-02-04T03:07:39.186Z,0.00
2018-02-04T03:10:07.101Z,0.10
2018-02-04T03:12:34.768Z,-0.10
2018-02-04T03:15:02.711Z,-0.10
2018-02-04T03:17:30.324Z,-0.20
2018-02-04T03:19:57.977Z,0.00
2018-02-04T03:22:25.592Z,0.30
2018-02-04T03:24:53.245Z,0.10
2018-02-04T03:27:20.861Z,0.20
2018-02-04T03:29:49.301Z,-0.10
2018-02-04T03:32:16.924Z,-0.20
2018-02-04T03:34:44.814Z,-0.30
2018-02-04T03:37:12.436Z,-0.20
2018-02-04T03:39:40.136Z,-0.50
2018-02-04T03:42:07.760Z,-0.40
2018-02-04T03:44:35.968Z,-0.20
2018-02-04T03:47:03.621Z,-0.20
2018-02-04T03:49:31.237Z,-0.10
2018-02-04T03:51:58.891Z,-0.10
2018-02-04T03:54:26.521Z,-0.30
2018-02-04T03:56:54.286Z,-0.10
2018-02-04T03:59:21.900Z,-0.10
2018-02-04T04:01:50.738Z,-0.30
2018-02-04T04:04:18.402Z,-0.10
2018-02-04T04:06:46.056Z,-0.10
2018-02-04T04:09:13.673Z,0.00
2018-02-04T04:11:41.341Z,-0.40
2018-02-04T04:14:09.018Z,-0.10
2018-02-04T04:16:36.645Z,-0.10
2018-02-04T04:19:04.308Z,0.10
2018-02-04T04:21:31.921Z,0.00
2018-02-04T04:23:59.684Z,-0.30
2018-02-04T04:26:27.444Z,-0.10
2018-02-04T04:28:55.097Z,-0.10
2018-02-04T04:31:22.720Z,-0.10
2018-02-04T04:33:50.506Z,0.10
2018-02-04T04:36:18.112Z,0.10
2018-02-04T04:38:45.766Z,0.10
2018-02-04T04:41:13.417Z,0.30
2018-02-04T04:43:41.631Z,-0.10
2018-02-04T04:46:09.285Z,-0.10
2018-02-04T04:48:36.905Z,-0.10
2018-02-04T04:51:04.561Z,0.00
2018-02-04T04:53:32.179Z,0.00
2018-02-04T04:55:59.828Z,-0.20
2018-02-04T04:58:27.459Z,0.00
2018-02-04T05:00:55.889Z,-0.80
2018-02-04T05:03:23.513Z,0.00
2018-02-04T05:05:51.134Z,0.10
2018-02-04T05:08:20.633Z,-0.10
2018-02-04T05:10:48.248Z,-0.30
2018-02-04T05:13:15.900Z,-0.10
2018-02-04T05:15:43.517Z,-0.10
2018-02-04T05:18:11.380Z,0.00
2018-02-04T05:20:38.993Z,0.10
2018-02-04T05:23:06.654Z,-0.10
2018-02-04T05:25:34.985Z,-0.20
2018-02-04T05:28:02.645Z,0.10
2018-02-04T05:30:30.267Z,-0.10
2018-02-04T05:32:57.885Z,-0.30
2018-02-04T05:35:25.541Z,-0.30
2018-02-04T05:37:53.157Z,-0.10
2018-02-04T05:40:21.518Z,-0.30
2018-02-04T05:42:49.133Z,-0.30
2018-02-04T05:45:17.146Z,-0.20
2018-02-04T05:47:44.924Z,-0.60
2018-02-04T05:50:12.557Z,-0.60
2018-02-04T05:52:40.213Z,-0.80
2018-02-04T05:55:07.884Z,-0.70
2018-02-04T05:57:35.520Z,-0.50
2018-02-04T06:00:03.187Z,-0.80
2018-02-04T06:02:31.024Z,-0.80
2018-02-04T06:05:00.406Z,-0.90
2018-02-04T06:07:28.024Z,-1.10
2018-02-04T06:09:55.679Z,-0.70
2018-02-04T06:12:23.346Z,-1.00
2018-02-04T06:14:51.009Z,-0.90
2018-02-04T06:17:18.630Z,-0.90
2018-02-04T06:19:46.309Z,-1.10
2018-02-04T06:22:14.700Z,-1.00
2018-02-04T06:24:43.061Z,-1.30
2018-02-04T06:27:10.720Z,-0.90
2018-02-04T06:29:38.373Z,-0.90
2018-02-04T06:32:06.793Z,-1.30
2018-02-04T06:34:34.416Z,-1.10
2018-02-04T06:37:02.072Z,-0.90
2018-02-04T06:39:30.462Z,-1.20
2018-02-04T06:41:58.881Z,-1.10
2018-02-04T06:44:26.517Z,-0.90
2018-02-04T06:46:54.177Z,-1.00
2018-02-04T06:49:21.851Z,-1.10
2018-02-04T06:51:49.509Z,-1.30
2018-02-04T06:54:17.130Z,-0.90
2018-02-04T06:56:44.981Z,-1.10
2018-02-04T06:59:12.603Z,-0.70
2018-02-04T07:01:41.029Z,-1.00
2018-02-04T07:04:08.965Z,-1.00
2018-02-04T07:06:36.625Z,-0.90
2018-02-04T07:09:04.280Z,-0.80
2018-02-04T07:11:31.946Z,-0.70
2018-02-04T07:14:00.665Z,-0.80
2018-02-04T07:16:29.096Z,-0.70
2018-02-04T07:18:56.756Z,-0.50
2018-02-04T07:21:24.379Z,-0.60
2018-02-04T07:23:52.375Z,-0.60
2018-02-04T07:26:20.146Z,-0.60
2018-02-04T07:28:47.757Z,-0.70
2018-02-04T07:31:15.415Z,-0.60
2018-02-04T07:33:43.033Z,-0.70
2018-02-04T07:36:10.688Z,-0.50
2018-02-04T07:38:38.301Z,-0.50
2018-02-04T07:41:06.728Z,-0.70
2018-02-04T07:43:34.368Z,-0.60
2018-02-04T07:46:02.025Z,-0.80
2018-02-04T07:48:29.662Z,-0.50
2018-02-04T07:50:57.383Z,-0.60
2018-02-04T07:53:25.032Z,-0.80
2018-02-04T07:55:52.705Z,-0.70
2018-02-04T07:58:20.356Z,-0.50
2018-02-04T08:00:48.010Z,-0.40
2018-02-04T08:03:15.659Z,-0.30
2018-02-04T08:05:43.873Z,-0.30
2018-02-04T08:08:11.528Z,-0.30
2018-02-04T08:10:39.145Z,-0.30
2018-02-04T08:13:07.001Z,-0.40
2018-02-04T08:15:34.626Z,-0.30
2018-02-04T08:18:02.305Z,-0.40
2018-02-04T08:20:30.680Z,-0.30
2018-02-04T08:22:58.342Z,-0.40
2018-02-04T08:25:25.978Z,-0.20
2018-02-04T08:27:53.629Z,-0.10
2018-02-04T08:30:21.281Z,-0.10
2018-02-04T08:32:48.893Z,-0.10
2018-02-04T08:35:16.513Z,-0.10
2018-02-04T08:37:44.167Z,0.10
2018-02-04T08:40:12.465Z,0.10
2018-02-04T08:42:40.113Z,0.10
2018-02-04T08:45:07.764Z,0.00
2018-02-04T08:47:35.407Z,0.40
2018-02-04T08:50:03.012Z,0.40
2018-02-04T08:52:30.834Z,0.30
2018-02-04T08:54:58.444Z,0.30
2018-02-04T08:57:26.108Z,0.30
2018-02-04T08:59:53.749Z,0.30
2018-02-04T09:02:21.400Z,0.30
2018-02-04T09:04:49.043Z,0.60
2018-02-04T09:07:16.883Z,0.30
2018-02-04T09:09:44.489Z,0.30
2018-02-04T09:12:12.848Z,0.60
2018-02-04T09:14:40.456Z,0.30
2018-02-04T09:17:08.480Z,0.40
2018-02-04T09:19:36.097Z,0.30
2018-02-04T09:22:03.746Z,0.30
2018-02-04T09:24:31.365Z,0.80
2018-02-04T09:26:59.069Z,0.40
2018-02-04T09:29:26.657Z,0.60
2018-02-04T09:31:54.309Z,0.60
2018-02-04T09:34:21.921Z,0.40
2018-02-04T09:36:50.341Z,0.60
2018-02-04T09:39:17.953Z,0.40
2018-02-04T09:41:45.600Z,0.60
2018-02-04T09:44:13.253Z,0.60
2018-02-04T09:46:41.381Z,0.60
2018-02-04T09:49:08.988Z,0.60
2018-02-04T09:51:37.462Z,0.70
2018-02-04T09:54:05.081Z,0.90
2018-02-04T09:56:32.732Z,0.90
2018-02-04T09:59:00.516Z,0.80
2018-02-04T10:01:28.137Z,0.60
2018-02-04T10:03:56.507Z,0.50
2018-02-04T10:06:24.139Z,0.60
2018-02-04T10:08:52.096Z,0.60
2018-02-04T10:11:19.713Z,0.70
2018-02-04T10:13:47.364Z,0.80
2018-02-04T10:16:14.985Z,0.60
2018-02-04T10:18:42.663Z,0.70
2018-02-04T10:21:10.661Z,0.80
2018-02-04T10:23:38.273Z,0.60
2018-02-04T10:26:07.437Z,0.70
2018-02-04T10:28:35.077Z,0.70
2018-02-04T10:31:02.729Z,0.70
2018-02-04T10:33:30.345Z,0.80
2018-02-04T10:35:57.998Z,0.40
2018-02-04T10:38:25.618Z,0.30
2018-02-04T10:40:53.269Z,0.50
2018-02-04T10:43:20.905Z,0.50
2018-02-04T10:45:49.341Z,0.40
2018-02-04T10:48:17.832Z,0.30
2018-02-04T10:50:51.180Z,0.30
2018-02-04T10:53:18.800Z,0.50
2018-02-04T10:55:46.721Z,0.60
2018-02-04T10:58:15.051Z,0.30
2018-02-04T11:00:42.682Z,0.60
2018-02-04T11:03:10.552Z,0.60
2018-02-04T11:05:39.154Z,1.10
2018-02-04T11:08:07.636Z,1.10
2018-02-04T11:10:35.259Z,0.70
2018-02-04T11:13:03.854Z,0.60
2018-02-04T11:15:31.514Z,0.90
2018-02-04T11:17:59.170Z,0.70
2018-02-04T11:20:26.784Z,0.70
2018-02-04T11:22:54.444Z,0.70
2018-02-04T11:25:22.060Z,0.70
2018-02-04T11:27:49.672Z,0.90
2018-02-04T11:30:17.537Z,0.90
2018-02-04T11:32:45.162Z,0.90
2018-02-04T11:35:14.191Z,0.90
2018-02-04T11:37:41.838Z,1.20
2018-02-04T11:40:10.256Z,0.90
2018-02-04T11:42:38.021Z,0.90
2018-02-04T11:45:06.448Z,1.40
2018-02-04T11:47:34.380Z,1.40
2018-02-04T11:50:01.990Z,1.10
2018-02-04T11:52:29.910Z,1.30
2018-02-04T11:54:57.553Z,1.20
2018-02-04T11:57:25.214Z,1.70
2018-02-04T11:59:53.600Z,1.30
2018-02-04T12:02:21.256Z,1.50
2018-02-04T12:04:48.905Z,1.40
2018-02-04T12:07:16.561Z,1.50
2018-02-04T12:09:44.173Z,1.20
2018-02-04T12:12:12.393Z,1.20
2018-02-04T12:14:40.036Z,1.30
2018-02-04T12:17:07.664Z,1.80
2018-02-04T12:19:36.084Z,1.20
2018-02-04T12:22:03.705Z,1.50
2018-02-04T12:24:31.380Z,1.60
2018-02-04T12:26:59.143Z,1.80
2018-02-04T12:29:26.757Z,1.60
2018-02-04T12:31:54.409Z,1.30
2018-02-04T12:34:22.030Z,1.40
2018-02-04T12:36:49.689Z,1.70
2018-02-04T12:39:17.292Z,1.20
2018-02-04T12:41:44.941Z,1.60
2018-02-04T12:44:12.722Z,1.80
2018-02-04T12:46:40.384Z,1.60
2018-02-04T12:49:08.029Z,1.40
2018-02-04T12:51:35.673Z,1.60
2018-02-04T12:54:03.284Z,1.40
2018-02-04T12:56:31.262Z,1.40
2018-02-04T12:58:58.880Z,1.40
2018-02-04T13:01:26.487Z,1.80
2018-02-04T13:06:46.998Z,1.20
2018-02-04T13:09:15.539Z,1.10
2018-02-04T13:11:43.194Z,1.30
2018-02-04T13:14:11.509Z,1.10
2018-02-04T13:16:39.881Z,1.20
2018-02-04T13:19:08.306Z,1.20
2018-02-04T13:21:36.512Z,1.60
2018-02-04T13:24:04.131Z,1.30
2018-02-04T13:26:31.784Z,1.60
2018-02-04T13:28:59.441Z,1.40
2018-02-04T13:31:27.146Z,1.20
2018-02-04T13:33:54.757Z,1.30
2018-02-04T13:36:22.672Z,1.30
2018-02-04T13:38:50.281Z,1.70
2018-02-04T13:41:17.930Z,1.60
2018-02-04T13:43:46.385Z,1.40
2018-02-04T13:46:14.135Z,1.70
2018-02-04T13:48:41.776Z,1.30
2018-02-04T13:51:09.429Z,1.20
2018-02-04T13:53:37.318Z,1.10
2018-02-04T13:56:04.960Z,1.10
2018-02-04T13:58:32.568Z,1.10
2018-02-04T14:01:00.988Z,1.10
2018-02-04T14:03:28.609Z,1.40
2018-02-04T14:05:56.254Z,1.20
2018-02-04T14:08:24.142Z,1.20
2018-02-04T14:10:52.523Z,1.20
2018-02-04T14:13:20.172Z,1.10
2018-02-04T14:15:48.101Z,1.10
2018-02-04T14:18:15.754Z,1.10
2018-02-04T14:20:43.365Z,1.20
2018-02-04T14:23:12.092Z,1.20
2018-02-04T14:25:39.700Z,1.50
2018-02-04T14:28:07.353Z,1.20
2018-02-04T14:30:35.778Z,1.10
2018-02-04T14:33:03.389Z,1.60
2018-02-04T14:35:31.795Z,1.20
2018-02-04T14:37:59.405Z,1.10
2018-02-04T14:40:27.061Z,1.20
2018-02-04T14:42:55.396Z,1.10
2018-02-04T14:45:23.733Z,1.10
2018-02-04T14:47:51.381Z,1.40
2018-02-04T14:50:19.038Z,1.40
2018-02-04T14:52:46.707Z,1.30
2018-02-04T14:55:14.317Z,1.70
2018-02-04T14:57:42.204Z,1.40
2018-02-04T15:00:10.081Z,1.30
2018-02-04T15:02:37.934Z,1.60
2018-02-04T15:05:05.583Z,1.50
2018-02-04T15:07:33.777Z,1.60
2018-02-04T15:10:01.481Z,1.40
2018-02-04T15:12:30.117Z,1.40
2018-02-04T15:14:57.729Z,1.60
2018-02-04T15:17:25.661Z,1.50
2018-02-04T15:19:54.917Z,1.30
2018-02-04T15:22:22.730Z,1.30
2018-02-04T15:24:50.348Z,1.30
2018-02-04T15:27:18.245Z,1.70
2018-02-04T15:29:45.874Z,1.30
2018-02-04T15:32:13.563Z,1.60
2018-02-04T15:34:41.181Z,1.40
2018-02-04T15:37:10.899Z,1.40
2018-02-04T15:39:38.704Z,1.20
2018-02-04T15:42:06.660Z,1.20
2018-02-04T15:44:34.511Z,1.20
2018-02-04T15:47:02.160Z,1.10
2018-02-04T15:49:30.380Z,1.10
2018-02-04T15:51:58.190Z,1.10
2018-02-04T15:54:25.869Z,1.20
2018-02-04T15:56:53.481Z,1.10
2018-02-04T15:59:21.395Z,1.20
2018-02-04T16:01:49.213Z,1.10
2018-02-04T16:04:16.924Z,1.10
2018-02-04T16:06:44.537Z,1.10
2018-02-04T16:09:12.193Z,1.10
2018-02-04T16:11:40.637Z,1.10
2018-02-04T16:14:10.033Z,1.00
2018-02-04T16:16:38.500Z,1.10
2018-02-04T16:19:06.165Z,1.00
2018-02-04T16:21:33.975Z,1.30
2018-02-04T16:24:01.590Z,1.10
2018-02-04T16:26:29.253Z,1.20
2018-02-04T16:28:57.723Z,1.20
2018-02-04T16:31:25.485Z,1.10
2018-02-04T16:33:53.108Z,1.10
2018-02-04T16:36:20.765Z,1.20
2018-02-04T16:38:49.096Z,1.10
2018-02-04T16:41:18.196Z,1.20
2018-02-04T16:43:45.822Z,1.10
2018-02-04T16:46:15.203Z,1.10
2018-02-04T16:48:44.301Z,1.20
2018-02-04T16:51:11.958Z,1.10
2018-02-04T16:53:40.045Z,1.10
2018-02-04T16:56:07.705Z,1.10
2018-02-04T16:58:35.491Z,1.20
2018-02-04T17:01:03.128Z,1.40
2018-02-04T17:03:32.060Z,1.20
2018-02-04T17:06:02.568Z,1.00
2018-02-04T17:08:32.080Z,1.10
2018-02-04T17:10:59.758Z,1.20
2018-02-04T17:13:27.472Z,1.20
2018-02-04T17:15:56.397Z,1.10
2018-02-04T17:18:25.728Z,1.10
2018-02-04T17:20:53.352Z,1.20
2018-02-04T17:23:21.213Z,1.20
2018-02-04T17:25:50.006Z,1.20
2018-02-04T17:28:17.656Z,1.00
2018-02-04T17:30:45.289Z,1.50
2018-02-04T17:33:12.985Z,1.10
2018-02-04T17:35:40.749Z,1.10
2018-02-04T17:38:09.843Z,1.10
2018-02-04T17:40:37.500Z,1.20
2018-02-04T17:43:05.165Z,1.10
2018-02-04T17:45:32.817Z,1.10
2018-02-04T17:48:00.481Z,1.20
2018-02-04T17:50:28.141Z,1.10
2018-02-04T17:52:55.799Z,1.10
2018-02-04T17:55:26.091Z,1.10
2018-02-04T17:57:53.780Z,1.10
2018-02-04T18:00:21.941Z,0.90
2018-02-04T18:02:50.801Z,1.00
2018-02-04T18:05:19.128Z,1.30
2018-02-04T18:07:46.977Z,0.90
2018-02-04T18:10:15.315Z,1.20
2018-02-04T18:12:42.928Z,1.20
2018-02-04T18:15:10.576Z,0.90
2018-02-04T18:17:38.235Z,1.20
2018-02-04T18:20:06.433Z,1.10
2018-02-04T18:22:34.162Z,1.20
2018-02-04T18:25:01.813Z,1.30
2018-02-04T18:27:29.469Z,1.20
2018-02-04T18:29:58.695Z,1.40
2018-02-04T18:32:26.438Z,1.20
2018-02-04T18:34:54.094Z,1.40
2018-02-04T18:37:21.881Z,1.40
2018-02-04T18:39:49.736Z,1.40
2018-02-04T18:42:17.573Z,1.40
2018-02-04T18:44:46.721Z,1.30
2018-02-04T18:47:16.108Z,1.50
2018-02-04T18:49:43.817Z,1.20
2018-02-04T18:52:12.257Z,1.30
2018-02-04T18:54:39.904Z,1.40
2018-02-04T18:57:08.252Z,1.10
2018-02-04T18:59:36.169Z,1.20
2018-02-04T19:02:04.774Z,1.10
2018-02-04T19:04:33.194Z,1.20
2018-02-04T19:07:00.959Z,1.60
2018-02-04T19:09:28.626Z,1.20
2018-02-04T19:11:56.245Z,1.20
2018-02-04T19:14:23.893Z,1.10
2018-02-04T19:16:52.452Z,1.30
2018-02-04T19:19:20.869Z,1.30
2018-02-04T19:21:48.719Z,1.60
2018-02-04T19:24:16.364Z,1.40
2018-02-04T19:26:45.737Z,1.10
2018-02-04T19:29:13.532Z,1.60
2018-02-04T19:31:41.364Z,1.40
2018-02-04T19:34:09.665Z,1.40
2018-02-04T19:36:38.005Z,1.40
2018-02-04T19:39:05.621Z,1.70
2018-02-04T19:41:34.257Z,1.60
2018-02-04T19:44:01.873Z,1.70
2018-02-04T19:46:29.522Z,1.40
2018-02-04T19:48:57.937Z,1.40
2018-02-04T19:51:25.607Z,1.60
2018-02-04T19:53:53.220Z,1.40
2018-02-04T19:56:20.838Z,1.30
2018-02-04T19:58:48.489Z,1.60
2018-02-04T20:01:16.105Z,1.40
2018-02-04T20:03:43.904Z,1.70
2018-02-04T20:06:11.601Z,1.30
2018-02-04T20:08:39.217Z,1.50
2018-02-04T20:11:06.872Z,1.40
2018-02-04T20:13:34.561Z,1.40
2018-02-04T20:16:02.554Z,1.40
2018-02-04T20:18:30.204Z,1.40
2018-02-04T20:20:57.821Z,1.30
2018-02-04T20:23:32.081Z,1.20
2018-02-04T20:26:06.595Z,1.20
2018-02-04T20:28:44.133Z,1.20
2018-02-04T20:31:20.533Z,1.10
2018-02-04T20:34:03.203Z,1.00
2018-02-04T20:36:37.021Z,1.20
2018-02-04T20:39:10.046Z,1.20
2018-02-04T20:41:43.344Z,1.10
2018-02-04T20:44:16.273Z,1.10
2018-02-04T20:46:50.324Z,1.10
2018-02-04T20:49:24.048Z,1.40
2018-02-04T20:51:57.370Z,1.10
2018-02-04T20:54:30.393Z,1.20
2018-02-04T20:57:04.213Z,1.10
2018-02-04T20:59:32.096Z,0.90
2018-02-04T21:01:59.752Z,1.10
2018-02-04T21:04:27.366Z,1.10
2018-02-04T21:06:55.022Z,0.90
2018-02-04T21:09:22.628Z,1.20
2018-02-04T21:11:50.276Z,0.90
2018-02-04T21:14:18.723Z,0.90
2018-02-04T21:16:47.043Z,1.00
2018-02-04T21:19:14.693Z,1.10
2018-02-04T21:21:42.342Z,0.80
2018-02-04T21:24:09.965Z,0.80
2018-02-04T21:26:38.374Z,0.80
2018-02-04T21:29:05.986Z,0.90
2018-02-04T21:31:33.625Z,0.80
2018-02-04T21:34:01.233Z,0.60
2018-02-04T21:36:28.886Z,0.60
2018-02-04T21:38:56.498Z,0.60
2018-02-04T21:41:24.151Z,0.60
2018-02-04T21:43:52.399Z,0.60
2018-02-04T21:46:20.049Z,0.60
2018-02-04T21:48:47.703Z,0.60
2018-02-04T21:51:15.413Z,0.60
2018-02-04T21:53:43.074Z,0.60
2018-02-04T21:56:10.937Z,0.60
2018-02-04T21:58:38.589Z,0.60
2018-02-04T22:01:06.199Z,0.60
2018-02-04T22:03:33.852Z,0.60
2018-02-04T22:06:01.460Z,0.80
2018-02-04T22:08:29.224Z,0.80
2018-02-04T22:10:57.432Z,1.00
2018-02-04T22:13:25.844Z,0.80
2018-02-04T22:15:53.491Z,0.80
2018-02-04T22:18:21.096Z,0.60
2018-02-04T22:20:48.743Z,0.60
2018-02-04T22:23:16.414Z,0.70
2018-02-04T22:25:44.060Z,0.70
2018-02-04T22:28:11.664Z,0.60
2018-02-04T22:30:39.308Z,0.70
2018-02-04T22:33:06.918Z,0.90
2018-02-04T22:35:34.564Z,1.00
2018-02-04T22:38:02.940Z,0.90
2018-02-04T22:40:31.364Z,0.90
2018-02-04T22:42:58.982Z,0.80
2018-02-04T22:45:26.632Z,1.20
2018-02-04T22:47:54.245Z,0.90
2018-02-04T22:50:21.848Z,0.90
2018-02-04T22:52:49.496Z,0.90
2018-02-04T22:55:17.101Z,0.90
2018-02-04T22:57:45.008Z,1.00
2018-02-04T23:00:12.617Z,1.00
2018-02-04T23:02:40.305Z,1.10
2018-02-04T23:05:07.917Z,0.70
2018-02-04T23:07:35.528Z,0.70
2018-02-04T23:10:03.601Z,0.80
2018-02-04T23:12:31.275Z,0.60
2018-02-04T23:14:58.945Z,0.60
2018-02-04T23:17:26.560Z,0.50
2018-02-04T23:19:54.208Z,0.60
2018-02-04T23:22:21.877Z,0.70
2018-02-04T23:24:49.485Z,0.90
2018-02-04T23:27:17.748Z,0.70
2018-02-04T23:29:45.404Z,0.70
2018-02-04T23:32:13.013Z,0.80
2018-02-04T23:34:40.617Z,0.50
2018-02-04T23:37:08.375Z,0.40
2018-02-04T23:39:35.977Z,0.30
2018-02-04T23:42:03.635Z,0.30
2018-02-04T23:44:31.280Z,0.80
2018-02-04T23:46:58.924Z,0.60
2018-02-04T23:49:26.571Z,0.50
2018-02-04T23:51:54.337Z,0.50
2018-02-04T23:54:21.978Z,0.60
2018-02-04T23:56:49.628Z,0.60
2018-02-04T23:59:17.232Z,0.60
